Time;durP1;ratioP1;P1;durP2;ratioP2;P2;SDS_P1;SDS_P2;PMS_P1;PMS_P2;Temp;Humidity;BMP_temperature;BMP_pressure;BME280_temperature;BME280_humidity;BME280_pressure;Samples;Min_cycle;Max_cycle;Signal;HPM_P1;HPM_P2
2023/08/14 00:01:53;;;;;;;5.95;2.78;;;;;;;;;;5074261;28;20051;-75
2023/08/14 00:04:19;;;;;;;8.27;2.95;;;;;;;;;;5074907;28;20475;-77
2023/08/14 00:06:44;;;;;;;4.63;3.00;;;;;;;;;;5056568;28;20028;-77
2023/08/14 00:09:09;;;;;;;5.65;3.25;;;;;;;;;;5056077;28;20032;-77
2023/08/14 00:11:34;;;;;;;8.03;3.10;;;;;;;;;;5073416;28;20039;-77
2023/08/14 00:14:00;;;;;;;7.93;3.30;;;;;;;;;;5072986;28;20259;-77
2023/08/14 00:16:26;;;;;;;5.43;3.33;;;;;;;;;;5073110;28;20281;-77
2023/08/14 00:18:51;;;;;;;9.40;3.15;;;;;;;;;;5073432;28;20052;-77
2023/08/14 00:21:17;;;;;;;5.18;3.00;;;;;;;;;;5056299;28;20020;-77
2023/08/14 00:23:42;;;;;;;5.20;2.92;;;;;;;;;;5075091;28;20484;-77
2023/08/14 00:26:11;;;;;;;4.82;3.20;;;;;;;;;;5074311;28;20021;-77
2023/08/14 00:28:36;;;;;;;5.18;3.30;;;;;;;;;;5055592;28;20051;-77
2023/08/14 00:31:02;;;;;;;5.57;3.10;;;;;;;;;;5074769;28;20479;-77
2023/08/14 00:33:27;;;;;;;4.00;3.05;;;;;;;;;;5073852;28;20254;-77
2023/08/14 00:35:53;;;;;;;4.75;2.97;;;;;;;;;;5076586;28;20028;-77
2023/08/14 00:38:18;;;;;;;4.60;3.00;;;;;;;;;;5077308;28;20067;-77
2023/08/14 00:40:43;;;;;;;4.90;3.10;;;;;;;;;;5078097;28;20253;-77
2023/08/14 00:43:08;;;;;;;4.38;3.03;;;;;;;;;;5060449;28;20258;-78
2023/08/14 00:45:34;;;;;;;4.25;3.00;;;;;;;;;;5078366;28;20027;-77
2023/08/14 00:47:59;;;;;;;8.20;3.30;;;;;;;;;;5077558;28;20021;-77
2023/08/14 00:50:25;;;;;;;5.45;2.97;;;;;;;;;;5078748;28;20059;-77
2023/08/14 00:52:55;;;;;;;6.35;3.20;;;;;;;;;;5077030;28;20028;-77
2023/08/14 00:55:23;;;;;;;5.97;3.25;;;;;;;;;;5059580;28;20025;-78
2023/08/14 00:57:51;;;;;;;7.85;2.97;;;;;;;;;;5076491;28;20028;-77
2023/08/14 01:00:16;;;;;;;7.13;2.97;;;;;;;;;;5078945;28;20510;-77
2023/08/14 01:02:43;;;;;;;3.90;3.20;;;;;;;;;;5077347;28;20040;-77
2023/08/14 01:05:09;;;;;;;6.13;3.08;;;;;;;;;;5077430;28;20025;-77
2023/08/14 01:07:34;;;;;;;4.38;3.25;;;;;;;;;;5078680;28;20395;-78
2023/08/14 01:10:01;;;;;;;5.93;3.40;;;;;;;;;;5078653;28;20389;-77
2023/08/14 01:12:42;;;;;;;6.05;3.25;;;;;;;;;;5076943;28;20627;-76
2023/08/14 01:15:13;;;;;;;5.25;3.13;;;;;;;;;;5077237;28;20073;-77
2023/08/14 01:17:42;;;;;;;5.18;3.10;;;;;;;;;;5079875;28;20032;-77
2023/08/14 01:20:08;;;;;;;3.70;2.80;;;;;;;;;;5077437;28;20029;-77
2023/08/14 01:22:55;;;;;;;7.88;3.30;;;;;;;;;;5076642;28;20085;-77
2023/08/14 01:25:31;;;;;;;4.72;3.10;;;;;;;;;;5075769;28;20028;-77
2023/08/14 01:27:58;;;;;;;6.10;3.22;;;;;;;;;;5075507;28;20407;-77
2023/08/14 01:30:23;;;;;;;5.65;3.60;;;;;;;;;;5075611;28;20160;-77
2023/08/14 01:32:50;;;;;;;4.03;3.17;;;;;;;;;;5075214;28;20028;-77
2023/08/14 01:35:17;;;;;;;5.20;3.28;;;;;;;;;;5074959;28;20052;-77
2023/08/14 01:37:51;;;;;;;6.75;3.42;;;;;;;;;;5057157;28;20060;-77
2023/08/14 01:40:27;;;;;;;4.45;3.33;;;;;;;;;;5075661;28;20035;-77
2023/08/14 01:43:06;;;;;;;4.30;3.40;;;;;;;;;;5075269;28;20077;-77
2023/08/14 01:45:34;;;;;;;4.03;3.13;;;;;;;;;;5074014;28;20396;-77
2023/08/14 01:48:00;;;;;;;5.18;3.20;;;;;;;;;;5073197;28;20503;-77
2023/08/14 01:50:27;;;;;;;4.57;3.10;;;;;;;;;;5074646;28;20029;-77
2023/08/14 01:52:53;;;;;;;3.97;3.33;;;;;;;;;;5072880;28;20098;-77
2023/08/14 01:55:18;;;;;;;13.02;3.50;;;;;;;;;;5073585;28;20081;-77
2023/08/14 01:57:43;;;;;;;10.15;3.70;;;;;;;;;;5073109;28;20387;-77
2023/08/14 02:00:09;;;;;;;7.10;3.17;;;;;;;;;;5073975;28;20039;-76
2023/08/14 02:02:35;;;;;;;4.55;3.45;;;;;;;;;;5075087;28;20791;-77
2023/08/14 02:05:00;;;;;;;5.25;3.30;;;;;;;;;;5074936;28;20104;-77
2023/08/14 02:07:26;;;;;;;7.07;3.38;;;;;;;;;;5057222;28;20391;-77
2023/08/14 02:09:51;;;;;;;5.63;3.40;;;;;;;;;;5074772;28;20483;-77
2023/08/14 02:12:16;;;;;;;7.70;3.27;;;;;;;;;;5075247;28;20257;-77
2023/08/14 02:14:41;;;;;;;4.27;3.10;;;;;;;;;;5075382;28;20257;-77
2023/08/14 02:17:07;;;;;;;5.32;2.85;;;;;;;;;;5075005;28;20293;-77
2023/08/14 02:19:32;;;;;;;4.20;3.03;;;;;;;;;;5074504;28;20048;-77
2023/08/14 02:21:57;;;;;;;7.38;3.33;;;;;;;;;;5074199;28;20036;-77
2023/08/14 02:24:22;;;;;;;5.13;3.08;;;;;;;;;;5074124;28;20029;-77
2023/08/14 02:26:48;;;;;;;6.43;3.30;;;;;;;;;;5074088;28;20017;-77
2023/08/14 02:29:13;;;;;;;10.83;3.53;;;;;;;;;;5073976;28;20314;-77
2023/08/14 02:31:39;;;;;;;4.63;3.00;;;;;;;;;;5074000;28;20293;-77
2023/08/14 02:34:05;;;;;;;5.03;3.33;;;;;;;;;;5073972;28;20048;-77
2023/08/14 02:36:30;;;;;;;4.10;3.15;;;;;;;;;;5073797;28;20067;-77
2023/08/14 02:38:55;;;;;;;3.83;3.07;;;;;;;;;;5056028;28;20020;-77
2023/08/14 02:41:21;;;;;;;4.68;3.08;;;;;;;;;;5073899;28;20253;-77
2023/08/14 02:43:47;;;;;;;11.35;3.47;;;;;;;;;;5073529;28;20418;-77
2023/08/14 02:46:12;;;;;;;6.05;3.05;;;;;;;;;;5056202;28;20107;-76
2023/08/14 02:48:37;;;;;;;4.87;3.13;;;;;;;;;;5073866;28;20020;-77
2023/08/14 02:51:03;;;;;;;5.50;3.47;;;;;;;;;;5073877;28;20253;-77
2023/08/14 02:53:28;;;;;;;5.00;3.53;;;;;;;;;;5073458;28;20253;-77
2023/08/14 02:55:53;;;;;;;4.03;3.63;;;;;;;;;;5074429;28;20028;-77
2023/08/14 02:58:19;;;;;;;8.45;3.60;;;;;;;;;;5072694;28;20047;-77
2023/08/14 03:00:45;;;;;;;4.13;3.40;;;;;;;;;;5073585;28;20025;-77
2023/08/14 03:03:11;;;;;;;5.55;3.40;;;;;;;;;;5055762;28;20017;-77
2023/08/14 03:05:37;;;;;;;6.53;3.17;;;;;;;;;;5057217;28;20039;-77
2023/08/14 03:08:03;;;;;;;5.38;3.65;;;;;;;;;;5073335;28;20016;-77
2023/08/14 03:10:28;;;;;;;5.03;3.47;;;;;;;;;;5055457;28;20065;-74
2023/08/14 03:12:54;;;;;;;4.13;3.22;;;;;;;;;;5074246;28;20021;-77
2023/08/14 03:15:19;;;;;;;5.53;3.20;;;;;;;;;;5073138;28;20391;-77
2023/08/14 03:17:45;;;;;;;5.45;3.53;;;;;;;;;;5073167;28;20273;-77
2023/08/14 03:20:11;;;;;;;4.55;3.67;;;;;;;;;;5055336;28;20032;-77
2023/08/14 03:22:36;;;;;;;5.03;3.17;;;;;;;;;;5057594;28;20058;-77
2023/08/14 03:25:01;;;;;;;5.30;3.40;;;;;;;;;;5073063;28;20103;-77
2023/08/14 03:27:27;;;;;;;5.40;3.50;;;;;;;;;;5073992;28;20333;-77
2023/08/14 03:29:52;;;;;;;5.10;3.08;;;;;;;;;;5074673;28;20261;-77
2023/08/14 03:32:17;;;;;;;4.23;2.83;;;;;;;;;;5056830;28;20082;-77
2023/08/14 03:34:42;;;;;;;3.85;3.13;;;;;;;;;;5076073;28;20300;-78
2023/08/14 03:37:08;;;;;;;6.50;3.00;;;;;;;;;;5076509;28;20033;-77
2023/08/14 03:39:33;;;;;;;4.60;3.37;;;;;;;;;;5076491;28;20099;-77
2023/08/14 03:41:58;;;;;;;4.43;2.90;;;;;;;;;;5075375;28;20264;-77
2023/08/14 03:44:23;;;;;;;7.53;3.07;;;;;;;;;;5057304;28;20669;-77
2023/08/14 03:46:49;;;;;;;10.70;3.10;;;;;;;;;;5073454;28;20253;-77
2023/08/14 03:49:15;;;;;;;4.80;3.10;;;;;;;;;;5055684;28;20020;-77
2023/08/14 03:51:40;;;;;;;7.03;3.35;;;;;;;;;;5072998;28;20609;-77
2023/08/14 03:54:05;;;;;;;4.00;3.00;;;;;;;;;;5073415;28;20054;-77
2023/08/14 03:56:31;;;;;;;5.55;3.42;;;;;;;;;;5075876;28;20671;-78
2023/08/14 03:58:56;;;;;;;3.40;2.90;;;;;;;;;;5074466;28;20071;-77
2023/08/14 04:01:21;;;;;;;6.50;3.10;;;;;;;;;;5057473;28;20136;-77
2023/08/14 04:03:47;;;;;;;6.70;3.20;;;;;;;;;;5076743;28;20046;-77
2023/08/14 04:06:12;;;;;;;4.93;3.10;;;;;;;;;;5058836;28;20017;-76
2023/08/14 04:08:37;;;;;;;4.10;3.10;;;;;;;;;;5074976;28;20316;-77
2023/08/14 04:11:04;;;;;;;3.40;3.10;;;;;;;;;;5077192;28;20261;-77
2023/08/14 04:13:30;;;;;;;4.05;3.17;;;;;;;;;;5077771;28;20314;-77
2023/08/14 04:16:03;;;;;;;6.63;3.65;;;;;;;;;;5078503;28;20032;-77
2023/08/14 04:18:29;;;;;;;5.30;3.95;;;;;;;;;;5059279;28;20028;-77
2023/08/14 04:20:55;;;;;;;6.45;3.53;;;;;;;;;;5065351;28;20033;-78
2023/08/14 04:23:22;;;;;;;6.40;3.20;;;;;;;;;;5087009;28;20081;-78
2023/08/14 04:25:47;;;;;;;5.38;3.15;;;;;;;;;;5070172;28;20364;-78
2023/08/14 04:28:12;;;;;;;8.35;3.20;;;;;;;;;;5068125;28;20021;-77
2023/08/14 04:30:37;;;;;;;4.00;3.10;;;;;;;;;;5084418;28;20066;-78
2023/08/14 04:33:03;;;;;;;4.17;3.10;;;;;;;;;;5086861;28;20253;-77
2023/08/14 04:35:28;;;;;;;4.72;3.13;;;;;;;;;;5068706;28;20359;-78
2023/08/14 04:37:56;;;;;;;4.50;3.38;;;;;;;;;;5085581;28;20032;-77
2023/08/14 04:40:21;;;;;;;6.97;3.30;;;;;;;;;;5070665;28;20029;-78
2023/08/14 04:42:47;;;;;;;5.25;3.30;;;;;;;;;;5072532;28;20020;-78
2023/08/14 04:45:12;;;;;;;4.33;3.40;;;;;;;;;;5073483;28;20119;-78
2023/08/14 04:47:37;;;;;;;6.45;3.22;;;;;;;;;;5082476;28;20315;-77
2023/08/14 04:50:03;;;;;;;4.43;3.10;;;;;;;;;;5077793;28;20028;-77
2023/08/14 04:52:28;;;;;;;5.82;2.95;;;;;;;;;;5078285;28;20249;-77
2023/08/14 04:54:54;;;;;;;4.90;3.20;;;;;;;;;;5061641;28;20026;-77
2023/08/14 04:57:19;;;;;;;4.27;3.40;;;;;;;;;;5084456;28;20025;-78
2023/08/14 04:59:44;;;;;;;7.13;3.60;;;;;;;;;;5088617;28;20279;-78
2023/08/14 05:02:09;;;;;;;8.65;3.30;;;;;;;;;;5066876;28;20620;-78
2023/08/14 05:04:35;;;;;;;4.33;3.20;;;;;;;;;;5083790;28;20131;-78
2023/08/14 05:07:01;;;;;;;4.40;3.00;;;;;;;;;;5085273;28;20249;-79
2023/08/14 05:09:26;;;;;;;4.40;3.30;;;;;;;;;;5063909;28;20043;-78
2023/08/14 05:11:51;;;;;;;6.43;3.00;;;;;;;;;;5082602;28;20054;-78
2023/08/14 05:14:18;;;;;;;3.77;3.03;;;;;;;;;;5079276;28;20257;-77
2023/08/14 05:16:45;;;;;;;7.13;3.00;;;;;;;;;;5060547;28;20273;-77
2023/08/14 05:19:10;;;;;;;5.10;3.08;;;;;;;;;;5077982;28;20024;-77
2023/08/14 05:21:38;;;;;;;4.35;3.00;;;;;;;;;;5075945;28;20113;-76
2023/08/14 05:24:04;;;;;;;4.57;2.83;;;;;;;;;;5075031;28;20029;-76
2023/08/14 05:26:29;;;;;;;6.40;3.15;;;;;;;;;;5077023;28;20111;-75
2023/08/14 05:28:55;;;;;;;4.57;3.20;;;;;;;;;;5056945;28;20086;-75
2023/08/14 05:31:20;;;;;;;4.28;2.97;;;;;;;;;;5075183;28;20036;-75
2023/08/14 05:33:45;;;;;;;4.47;2.95;;;;;;;;;;5074787;28;20056;-75
2023/08/14 05:36:10;;;;;;;9.40;3.50;;;;;;;;;;5074926;28;20050;-75
2023/08/14 05:38:36;;;;;;;6.57;3.50;;;;;;;;;;5057058;28;20035;-75
2023/08/14 05:41:01;;;;;;;5.13;3.25;;;;;;;;;;5075160;28;20680;-74
2023/08/14 05:43:26;;;;;;;9.07;3.78;;;;;;;;;;5074973;28;20020;-76
2023/08/14 05:45:51;;;;;;;5.23;3.50;;;;;;;;;;5056916;28;20055;-75
2023/08/14 05:48:17;;;;;;;5.80;3.10;;;;;;;;;;5074687;28;20288;-76
2023/08/14 05:50:43;;;;;;;6.30;3.20;;;;;;;;;;5057515;28;20744;-75
2023/08/14 05:53:08;;;;;;;3.28;2.80;;;;;;;;;;5074837;28;20100;-75
2023/08/14 05:55:36;;;;;;;4.28;3.10;;;;;;;;;;5074571;28;20036;-74
2023/08/14 05:58:03;;;;;;;4.53;3.22;;;;;;;;;;5074358;28;20025;-74
2023/08/14 06:00:29;;;;;;;7.50;3.20;;;;;;;;;;5074392;28;20390;-74
2023/08/14 06:02:55;;;;;;;7.53;3.45;;;;;;;;;;5074343;28;20103;-76
2023/08/14 06:05:21;;;;;;;8.25;3.47;;;;;;;;;;5056332;28;20155;-76
2023/08/14 06:07:51;;;;;;;8.32;3.30;;;;;;;;;;5074572;28;20365;-75
2023/08/14 06:10:16;;;;;;;7.45;3.38;;;;;;;;;;5074337;28;20039;-74
2023/08/14 06:12:48;;;;;;;10.60;3.45;;;;;;;;;;5074157;28;20028;-75
2023/08/14 06:15:14;;;;;;;7.35;2.80;;;;;;;;;;5074069;28;20104;-75
2023/08/14 06:17:40;;;;;;;8.25;3.42;;;;;;;;;;5056307;28;20178;-75
2023/08/14 06:20:06;;;;;;;6.05;3.20;;;;;;;;;;5074272;28;20021;-75
2023/08/14 06:22:31;;;;;;;6.38;2.90;;;;;;;;;;5074115;28;20036;-75
2023/08/14 06:24:56;;;;;;;4.40;3.28;;;;;;;;;;5056617;28;20044;-75
2023/08/14 06:27:22;;;;;;;5.35;3.00;;;;;;;;;;5073909;28;20025;-76
2023/08/14 06:29:47;;;;;;;4.82;2.67;;;;;;;;;;5073920;28;20506;-74
2023/08/14 06:32:13;;;;;;;5.35;3.13;;;;;;;;;;5072977;28;20017;-74
2023/08/14 06:34:38;;;;;;;5.10;2.90;;;;;;;;;;5073535;28;20048;-75
2023/08/14 06:37:04;;;;;;;3.78;2.65;;;;;;;;;;5056037;28;20054;-76
2023/08/14 06:39:29;;;;;;;4.30;2.92;;;;;;;;;;5073964;28;20035;-75
2023/08/14 06:41:55;;;;;;;6.43;3.03;;;;;;;;;;5073835;28;20096;-74
2023/08/14 06:46:54;;;;;;;6.88;2.60;;;;;;;;;;5071861;28;20060;-75
2023/08/14 06:49:26;;;;;;;6.82;2.80;;;;;;;;;;5055145;28;20058;-76
2023/08/14 06:52:24;;;;;;;8.93;2.90;;;;;;;;;;5072193;28;20040;-75
2023/08/14 06:54:50;;;;;;;3.83;2.78;;;;;;;;;;5073396;28;20070;-75
2023/08/14 06:57:15;;;;;;;3.30;2.53;;;;;;;;;;5073456;28;20028;-75
2023/08/14 06:59:40;;;;;;;6.57;2.50;;;;;;;;;;5073599;28;20028;-74
2023/08/14 07:02:05;;;;;;;4.07;2.40;;;;;;;;;;5073370;28;20275;-75
2023/08/14 07:04:31;;;;;;;4.70;2.50;;;;;;;;;;5073218;28;20020;-75
2023/08/14 07:06:56;;;;;;;7.20;2.20;;;;;;;;;;5073243;28;20023;-75
2023/08/14 07:09:22;;;;;;;5.03;2.50;;;;;;;;;;5072363;28;20273;-74
2023/08/14 07:11:47;;;;;;;3.63;2.03;;;;;;;;;;5074308;28;20316;-75
2023/08/14 07:14:15;;;;;;;7.25;2.60;;;;;;;;;;5073396;28;20025;-76
2023/08/14 07:16:41;;;;;;;5.15;2.22;;;;;;;;;;5074148;28;20444;-77
2023/08/14 07:19:06;;;;;;;3.92;2.10;;;;;;;;;;5072416;28;20067;-80
2023/08/14 07:21:32;;;;;;;7.65;2.40;;;;;;;;;;5073413;28;20024;-75
2023/08/14 07:23:58;;;;;;;4.65;2.25;;;;;;;;;;5074317;28;20035;-76
2023/08/14 07:26:23;;;;;;;3.87;2.30;;;;;;;;;;5073048;28;20394;-75
2023/08/14 07:28:48;;;;;;;4.45;2.20;;;;;;;;;;5071591;28;20257;-75
2023/08/14 07:31:14;;;;;;;5.03;2.58;;;;;;;;;;5072937;28;20048;-75
2023/08/14 07:33:39;;;;;;;16.67;2.42;;;;;;;;;;5073328;28;20035;-77
2023/08/14 07:36:04;;;;;;;3.85;2.38;;;;;;;;;;5074706;28;20387;-79
2023/08/14 07:38:31;;;;;;;3.60;2.13;;;;;;;;;;5076256;28;20074;-77
2023/08/14 07:40:56;;;;;;;3.53;2.22;;;;;;;;;;5073120;28;20080;-76
2023/08/14 07:43:22;;;;;;;3.67;2.30;;;;;;;;;;5078239;28;20046;-77
2023/08/14 07:45:48;;;;;;;4.00;2.00;;;;;;;;;;5083219;28;20039;-77
2023/08/14 07:48:13;;;;;;;4.03;2.40;;;;;;;;;;5083171;28;20048;-77
2023/08/14 07:50:38;;;;;;;5.03;2.50;;;;;;;;;;5083490;28;20044;-74
2023/08/14 07:53:04;;;;;;;9.13;3.08;;;;;;;;;;5080479;28;20025;-73
2023/08/14 07:55:29;;;;;;;4.47;2.40;;;;;;;;;;5079791;28;20107;-74
2023/08/14 07:57:54;;;;;;;3.17;2.33;;;;;;;;;;5078412;28;20032;-74
2023/08/14 08:00:20;;;;;;;6.18;2.53;;;;;;;;;;5079512;28;20024;-74
2023/08/14 08:02:45;;;;;;;9.02;3.03;;;;;;;;;;5079360;28;20092;-74
2023/08/14 08:05:11;;;;;;;3.80;2.40;;;;;;;;;;5079131;28;20418;-74
2023/08/14 08:07:36;;;;;;;8.45;2.83;;;;;;;;;;5079063;28;20032;-74
2023/08/14 08:10:02;;;;;;;2.90;2.37;;;;;;;;;;5079302;28;20035;-74
2023/08/14 08:12:27;;;;;;;3.97;2.40;;;;;;;;;;5077690;28;20775;-74
2023/08/14 08:14:53;;;;;;;4.72;2.75;;;;;;;;;;5078184;28;20033;-74
2023/08/14 08:17:18;;;;;;;4.93;2.50;;;;;;;;;;5078586;28;20556;-74
2023/08/14 08:19:46;;;;;;;7.78;2.75;;;;;;;;;;5077877;28;20372;-74
2023/08/14 08:22:11;;;;;;;6.13;2.65;;;;;;;;;;5077868;28;20119;-74
2023/08/14 08:24:37;;;;;;;6.95;3.00;;;;;;;;;;5079067;28;20067;-74
2023/08/14 08:27:02;;;;;;;2.70;2.50;;;;;;;;;;5077745;28;20219;-74
2023/08/14 08:29:27;;;;;;;4.55;2.72;;;;;;;;;;5077989;28;20268;-74
2023/08/14 08:31:52;;;;;;;6.77;3.33;;;;;;;;;;5079208;28;20020;-74
2023/08/14 08:34:17;;;;;;;5.60;2.53;;;;;;;;;;5079126;28;20288;-74
2023/08/14 08:36:43;;;;;;;3.73;2.70;;;;;;;;;;5077687;28;20273;-74
2023/08/14 08:39:08;;;;;;;6.47;2.77;;;;;;;;;;5079057;28;20293;-74
2023/08/14 08:41:38;;;;;;;5.60;3.10;;;;;;;;;;5079250;28;20792;-74
2023/08/14 08:44:09;;;;;;;5.03;2.90;;;;;;;;;;5079151;28;20340;-74
2023/08/14 08:46:37;;;;;;;6.72;3.72;;;;;;;;;;5078860;28;20029;-74
2023/08/14 08:49:03;;;;;;;6.45;3.13;;;;;;;;;;5079201;28;20028;-74
2023/08/14 08:51:30;;;;;;;7.20;3.42;;;;;;;;;;5079295;28;20028;-74
2023/08/14 08:53:55;;;;;;;5.75;3.00;;;;;;;;;;5079171;28;20028;-74
2023/08/14 08:56:22;;;;;;;4.32;3.00;;;;;;;;;;5073247;28;20540;-74
2023/08/14 08:58:48;;;;;;;4.47;3.15;;;;;;;;;;5075705;28;20025;-74
2023/08/14 09:01:13;;;;;;;5.90;3.17;;;;;;;;;;5074983;28;20506;-74
2023/08/14 09:03:39;;;;;;;6.18;2.97;;;;;;;;;;5075411;28;20032;-74
2023/08/14 09:06:04;;;;;;;4.88;3.35;;;;;;;;;;5074128;28;20095;-74
2023/08/14 09:08:30;;;;;;;4.57;3.23;;;;;;;;;;5075732;28;20127;-74
2023/08/14 09:10:55;;;;;;;11.00;3.20;;;;;;;;;;5074153;28;20257;-74
2023/08/14 09:13:21;;;;;;;7.07;2.80;;;;;;;;;;5074098;28;20111;-73
2023/08/14 09:15:47;;;;;;;3.88;2.88;;;;;;;;;;5073914;28;20284;-74
2023/08/14 09:18:12;;;;;;;5.17;2.50;;;;;;;;;;5075424;28;20483;-73
2023/08/14 09:20:41;;;;;;;4.63;2.47;;;;;;;;;;5074907;28;20643;-74
2023/08/14 09:23:12;;;;;;;5.07;2.45;;;;;;;;;;5074648;28;20056;-75
2023/08/14 09:25:39;;;;;;;5.13;2.78;;;;;;;;;;5073158;28;20030;-76
2023/08/14 09:28:08;;;;;;;8.32;3.10;;;;;;;;;;5074042;28;20533;-74
2023/08/14 09:30:35;;;;;;;5.85;3.42;;;;;;;;;;5073277;28;20025;-74
2023/08/14 09:33:00;;;;;;;5.88;2.95;;;;;;;;;;5073824;28;20111;-74
2023/08/14 09:35:25;;;;;;;4.60;2.60;;;;;;;;;;5073578;28;20052;-74
2023/08/14 09:37:50;;;;;;;8.73;2.93;;;;;;;;;;5073506;28;20387;-75
2023/08/14 09:40:17;;;;;;;5.17;2.53;;;;;;;;;;5073515;28;20253;-74
2023/08/14 09:42:47;;;;;;;4.35;2.70;;;;;;;;;;5073644;28;20265;-74
2023/08/14 09:45:14;;;;;;;9.75;2.70;;;;;;;;;;5073193;28;20056;-74
2023/08/14 09:47:41;;;;;;;3.00;2.42;;;;;;;;;;5073486;28;20097;-74
2023/08/14 09:50:07;;;;;;;4.72;2.95;;;;;;;;;;5074863;28;20519;-74
2023/08/14 09:52:33;;;;;;;4.95;2.65;;;;;;;;;;5074676;28;20060;-74
2023/08/14 09:55:01;;;;;;;6.20;2.70;;;;;;;;;;5073539;28;20495;-74
2023/08/14 09:57:26;;;;;;;3.90;2.70;;;;;;;;;;5073327;28;20016;-75
2023/08/14 09:59:52;;;;;;;3.97;2.58;;;;;;;;;;5074841;28;20123;-75
2023/08/14 10:02:22;;;;;;;6.65;2.65;;;;;;;;;;5074442;28;20142;-75
2023/08/14 10:04:48;;;;;;;5.63;2.60;;;;;;;;;;5074414;28;20487;-75
2023/08/14 10:07:15;;;;;;;6.88;2.45;;;;;;;;;;5074006;28;20032;-75
2023/08/14 10:09:44;;;;;;;6.43;2.75;;;;;;;;;;5074331;28;20017;-75
2023/08/14 10:12:15;;;;;;;4.50;2.90;;;;;;;;;;5074543;28;20051;-73
2023/08/14 10:14:45;;;;;;;4.90;2.85;;;;;;;;;;5072945;28;20078;-73
2023/08/14 10:17:18;;;;;;;3.53;2.85;;;;;;;;;;5073063;28;20579;-75
2023/08/14 10:19:45;;;;;;;4.90;2.78;;;;;;;;;;5074131;28;20027;-73
2023/08/14 10:22:12;;;;;;;3.05;2.58;;;;;;;;;;5074234;28;20488;-74
2023/08/14 10:24:37;;;;;;;3.90;2.78;;;;;;;;;;5073888;28;20074;-74
2023/08/14 10:27:04;;;;;;;3.55;2.75;;;;;;;;;;5072680;28;20347;-74
2023/08/14 10:29:31;;;;;;;4.07;2.90;;;;;;;;;;5074025;28;20099;-74
2023/08/14 10:31:57;;;;;;;5.75;2.67;;;;;;;;;;5073914;28;20031;-74
2023/08/14 10:34:23;;;;;;;4.28;2.30;;;;;;;;;;5073911;28;20028;-74
2023/08/14 10:36:51;;;;;;;4.65;2.72;;;;;;;;;;5073829;28;20025;-73
2023/08/14 10:39:18;;;;;;;5.40;2.47;;;;;;;;;;5073796;28;20016;-75
2023/08/14 10:41:44;;;;;;;5.10;2.50;;;;;;;;;;5073790;28;20028;-75
2023/08/14 10:44:10;;;;;;;5.50;2.80;;;;;;;;;;5073521;28;20108;-74
2023/08/14 10:46:42;;;;;;;4.45;2.33;;;;;;;;;;5073475;28;20028;-75
2023/08/14 10:49:10;;;;;;;4.97;2.60;;;;;;;;;;5072343;28;20028;-74
2023/08/14 10:51:40;;;;;;;5.00;2.70;;;;;;;;;;5073660;28;20489;-75
2023/08/14 10:54:08;;;;;;;7.95;2.78;;;;;;;;;;5073509;28;20464;-75
2023/08/14 10:56:46;;;;;;;3.03;2.58;;;;;;;;;;5073435;28;20017;-74
2023/08/14 10:59:28;;;;;;;5.85;2.60;;;;;;;;;;5073907;28;20459;-74
2023/08/14 11:02:05;;;;;;;8.63;2.90;;;;;;;;;;5072350;28;20078;-74
2023/08/14 11:04:31;;;;;;;4.70;2.60;;;;;;;;;;5072460;28;20123;-75
2023/08/14 11:06:57;;;;;;;5.68;2.65;;;;;;;;;;5073159;28;20066;-74
2023/08/14 11:09:22;;;;;;;5.13;2.70;;;;;;;;;;5072133;28;20032;-75
2023/08/14 11:11:48;;;;;;;6.03;2.40;;;;;;;;;;5073314;28;20344;-75
2023/08/14 11:14:13;;;;;;;4.13;2.13;;;;;;;;;;5073283;28;20257;-73
2023/08/14 11:16:38;;;;;;;8.05;2.55;;;;;;;;;;5073435;28;20028;-73
2023/08/14 11:19:04;;;;;;;6.20;2.70;;;;;;;;;;5073142;28;20475;-73
2023/08/14 11:21:34;;;;;;;5.38;2.67;;;;;;;;;;5073308;28;20024;-73
2023/08/14 11:23:59;;;;;;;5.82;2.50;;;;;;;;;;5071866;28;20024;-74
2023/08/14 11:26:29;;;;;;;3.92;2.42;;;;;;;;;;5055457;28;20399;-75
2023/08/14 11:28:54;;;;;;;4.15;3.00;;;;;;;;;;5072818;28;20056;-75
2023/08/14 11:31:19;;;;;;;9.25;2.78;;;;;;;;;;5071695;28;20069;-74
2023/08/14 11:33:45;;;;;;;3.30;2.30;;;;;;;;;;5073093;28;20467;-75
2023/08/14 11:36:10;;;;;;;4.60;2.80;;;;;;;;;;5073403;28;20052;-75
2023/08/14 11:38:35;;;;;;;6.22;2.78;;;;;;;;;;5071643;28;20318;-75
2023/08/14 11:41:00;;;;;;;6.43;2.63;;;;;;;;;;5072965;28;20070;-75
2023/08/14 11:43:26;;;;;;;4.28;2.47;;;;;;;;;;5071463;28;20327;-75
2023/08/14 11:45:52;;;;;;;5.93;2.67;;;;;;;;;;5072747;28;20325;-74
2023/08/14 11:48:18;;;;;;;5.90;3.00;;;;;;;;;;5073043;28;20241;-75
2023/08/14 11:50:47;;;;;;;5.32;3.00;;;;;;;;;;5071933;28;20429;-75
2023/08/14 11:53:13;;;;;;;3.92;2.83;;;;;;;;;;5073108;28;20031;-75
2023/08/14 11:55:38;;;;;;;3.30;2.60;;;;;;;;;;5072764;28;20033;-75
2023/08/14 11:58:04;;;;;;;6.53;2.65;;;;;;;;;;5072753;28;20074;-75
2023/08/14 12:00:29;;;;;;;5.30;2.93;;;;;;;;;;5072717;28;20029;-75
2023/08/14 12:02:55;;;;;;;5.82;2.90;;;;;;;;;;5072631;28;20728;-75
2023/08/14 12:05:21;;;;;;;3.63;2.60;;;;;;;;;;5071511;28;20021;-75
2023/08/14 12:07:46;;;;;;;5.05;3.15;;;;;;;;;;5071369;28;20150;-75
2023/08/14 12:10:14;;;;;;;6.20;2.85;;;;;;;;;;5072767;28;20033;-75
2023/08/14 12:12:40;;;;;;;6.82;2.85;;;;;;;;;;5072948;28;20387;-75
2023/08/14 12:15:05;;;;;;;6.40;3.00;;;;;;;;;;5072597;28;20029;-75
2023/08/14 12:17:31;;;;;;;7.88;2.72;;;;;;;;;;5072532;28;20112;-75
2023/08/14 12:19:57;;;;;;;7.18;2.72;;;;;;;;;;5072387;28;20032;-74
2023/08/14 12:22:25;;;;;;;4.03;2.70;;;;;;;;;;5072718;28;20055;-75
2023/08/14 12:24:51;;;;;;;8.60;2.78;;;;;;;;;;5072315;28;20031;-74
2023/08/14 12:27:24;;;;;;;16.35;5.20;;;;;;;;;;5072347;28;20032;-75
2023/08/14 12:29:50;;;;;;;4.65;2.95;;;;;;;;;;5074824;28;20078;-74
2023/08/14 12:32:17;;;;;;;10.68;3.10;;;;;;;;;;5074796;28;20111;-75
2023/08/14 12:34:42;;;;;;;6.22;3.25;;;;;;;;;;5076032;28;20033;-75
2023/08/14 12:37:11;;;;;;;5.35;3.15;;;;;;;;;;5075974;28;20089;-75
2023/08/14 12:39:36;;;;;;;5.18;3.45;;;;;;;;;;5076032;28;20020;-75
2023/08/14 12:42:02;;;;;;;8.82;3.25;;;;;;;;;;5075936;28;20077;-75
2023/08/14 12:44:28;;;;;;;9.45;3.00;;;;;;;;;;5075814;28;20024;-75
2023/08/14 12:46:53;;;;;;;6.93;3.08;;;;;;;;;;5075918;28;20021;-75
2023/08/14 12:49:19;;;;;;;6.60;3.28;;;;;;;;;;5075849;28;20031;-75
2023/08/14 12:51:45;;;;;;;4.10;3.25;;;;;;;;;;5075671;28;20017;-74
2023/08/14 12:54:11;;;;;;;4.78;3.08;;;;;;;;;;5075622;28;20020;-75
2023/08/14 12:56:36;;;;;;;6.22;3.25;;;;;;;;;;5074343;28;20052;-74
2023/08/14 12:59:05;;;;;;;4.97;3.10;;;;;;;;;;5075058;28;20416;-75
2023/08/14 13:01:30;;;;;;;7.70;3.50;;;;;;;;;;5075555;28;20024;-74
2023/08/14 13:03:56;;;;;;;6.95;3.67;;;;;;;;;;5075361;28;20021;-73
2023/08/14 13:06:21;;;;;;;6.38;3.40;;;;;;;;;;5075544;28;20490;-75
2023/08/14 13:08:47;;;;;;;6.10;3.88;;;;;;;;;;5075553;28;20029;-75
2023/08/14 13:11:13;;;;;;;4.80;3.40;;;;;;;;;;5075450;28;20090;-73
2023/08/14 13:13:38;;;;;;;4.13;3.28;;;;;;;;;;5075476;28;20111;-74
2023/08/14 13:16:04;;;;;;;8.07;3.67;;;;;;;;;;5075395;28;20479;-74
2023/08/14 13:18:29;;;;;;;7.25;3.88;;;;;;;;;;5075205;28;20017;-73
2023/08/14 13:20:54;;;;;;;7.28;4.47;;;;;;;;;;5073899;28;20387;-74
2023/08/14 13:23:19;;;;;;;8.07;4.33;;;;;;;;;;5075100;28;20027;-75
2023/08/14 13:25:45;;;;;;;5.95;4.20;;;;;;;;;;5075142;28;20335;-74
2023/08/14 13:28:10;;;;;;;8.85;4.25;;;;;;;;;;5075161;28;20028;-75
2023/08/14 13:30:35;;;;;;;5.82;4.18;;;;;;;;;;5075161;28;20060;-75
2023/08/14 13:33:01;;;;;;;5.15;4.00;;;;;;;;;;5073718;28;20029;-75
2023/08/14 13:35:26;;;;;;;7.55;4.40;;;;;;;;;;5074835;28;20078;-74
2023/08/14 13:37:51;;;;;;;6.10;4.07;;;;;;;;;;5074831;28;20531;-75
2023/08/14 13:40:18;;;;;;;8.10;3.95;;;;;;;;;;5073927;28;20265;-75
2023/08/14 13:42:43;;;;;;;7.93;4.15;;;;;;;;;;5074448;28;20032;-74
2023/08/14 13:45:09;;;;;;;9.53;4.50;;;;;;;;;;5073381;28;20034;-75
2023/08/14 13:47:34;;;;;;;10.40;4.50;;;;;;;;;;5074781;28;20256;-74
2023/08/14 13:49:59;;;;;;;8.40;3.93;;;;;;;;;;5073261;28;20090;-72
2023/08/14 13:52:24;;;;;;;5.17;3.80;;;;;;;;;;5074595;28;20725;-75
2023/08/14 13:54:49;;;;;;;6.30;4.27;;;;;;;;;;5074788;28;20265;-73
2023/08/14 13:57:15;;;;;;;8.33;4.90;;;;;;;;;;5074465;28;20371;-74
2023/08/14 13:59:41;;;;;;;8.18;4.45;;;;;;;;;;5073588;28;20092;-74
2023/08/14 14:02:07;;;;;;;6.07;4.10;;;;;;;;;;5071789;28;20166;-74
2023/08/14 14:04:32;;;;;;;5.45;4.20;;;;;;;;;;5073225;28;20111;-73
2023/08/14 14:06:57;;;;;;;7.63;4.20;;;;;;;;;;5074346;28;20029;-74
2023/08/14 14:09:22;;;;;;;8.25;4.50;;;;;;;;;;5073144;28;20764;-73
2023/08/14 14:11:48;;;;;;;14.60;4.75;;;;;;;;;;5073063;28;20020;-73
2023/08/14 14:14:13;;;;;;;5.63;4.13;;;;;;;;;;5074396;28;20021;-74
2023/08/14 14:16:56;;;;;;;8.50;4.00;;;;;;;;;;5074299;28;20052;-73
2023/08/14 14:19:22;;;;;;;11.38;4.03;;;;;;;;;;5074569;28;20111;-75
2023/08/14 14:21:47;;;;;;;9.57;4.30;;;;;;;;;;5074233;28;20056;-74
2023/08/14 14:24:12;;;;;;;5.67;4.00;;;;;;;;;;5074004;28;20086;-75
2023/08/14 14:26:38;;;;;;;7.13;3.97;;;;;;;;;;5074219;28;20256;-75
2023/08/14 14:29:03;;;;;;;5.40;3.72;;;;;;;;;;5073867;28;20070;-74
2023/08/14 14:31:28;;;;;;;5.20;3.80;;;;;;;;;;5074278;28;20483;-75
2023/08/14 14:33:54;;;;;;;6.90;3.73;;;;;;;;;;5073830;28;20372;-75
2023/08/14 14:36:19;;;;;;;9.93;4.27;;;;;;;;;;5074033;28;20261;-74
2023/08/14 14:38:44;;;;;;;4.63;3.60;;;;;;;;;;5073808;28;20261;-75
2023/08/14 14:41:09;;;;;;;7.07;3.77;;;;;;;;;;5072436;28;20775;-74